Time;durP1;ratioP1;P1;durP2;ratioP2;P2;SDS_P1;SDS_P2;PMS_P1;PMS_P2;Temp;Humidity;BMP_temperature;BMP_pressure;BME280_temperature;BME280_humidity;BME280_pressure;Samples;Min_cycle;Max_cycle;Signal;HPM_P1;HPM_P2
2022/09/30 00:00:16;;;;;;;;;;;;;;;10.22;64.54297;100875;;;;-75
2022/09/30 00:05:13;;;;;;;;;;;;;;;10.18;64.52637;100879.3;;;;-75
2022/09/30 00:10:15;;;;;;;;;;;;;;;10.14;64.71973;100871.2;;;;-76
2022/09/30 00:15:13;;;;;;;;;;;;;;;10.05;64.64063;100874.4;;;;-76
2022/09/30 00:20:16;;;;;;;;;;;;;;;9.99;64.72949;100880.5;;;;-75
2022/09/30 00:22:02;;;;;;;4;1.8;;;;;;;;;;;;;-75
2022/09/30 00:25:12;;;;;;;;;;;;;;;9.91;64.84082;100883.2;;;;-76
2022/09/30 00:30:12;;;;;;;;;;;;;;;9.8;64.82617;100880.8;;;;-76
2022/09/30 00:35:15;;;;;;;;;;;;;;;9.7;64.7998;100880.9;;;;-76
2022/09/30 00:40:14;;;;;;;;;;;;;;;9.62;65.04297;100880.3;;;;-76
2022/09/30 00:45:16;;;;;;;;;;;;;;;9.53;65.12891;100885;;;;-75
2022/09/30 00:50:14;;;;;;;;;;;;;;;9.42;65.24512;100881.2;;;;-74
2022/09/30 00:52:00;;;;;;;2.9;1.7;;;;;;;;;;;;;-74
2022/09/30 00:55:18;;;;;;;;;;;;;;;9.33;65.16602;100881.3;;;;-75
2022/09/30 01:00:13;;;;;;;;;;;;;;;9.25;65.07617;100880.3;;;;-74
2022/09/30 01:05:12;;;;;;;;;;;;;;;9.15;65.68164;100880.2;;;;-75
2022/09/30 01:10:12;;;;;;;;;;;;;;;9.09;65.33984;100880.4;;;;-76
2022/09/30 01:15:12;;;;;;;;;;;;;;;9.06;65.28027;100885.2;;;;-76
2022/09/30 01:20:32;;;;;;;;;;;;;;;9.01;65.36133;100899.3;;;;-75
2022/09/30 01:22:21;;;;;;;3.8;1.7;;;;;;;;;;;;;-76
2022/09/30 01:25:18;;;;;;;;;;;;;;;8.93;65.16113;100896.4;;;;-76
2022/09/30 01:30:24;;;;;;;;;;;;;;;8.87;65.68262;100888.5;;;;-75
2022/09/30 01:35:21;;;;;;;;;;;;;;;8.78;65.70215;100894.5;;;;-76
2022/09/30 01:40:21;;;;;;;;;;;;;;;8.71;65.61523;100897.5;;;;-74
2022/09/30 01:45:16;;;;;;;;;;;;;;;8.65;65.70508;100898.9;;;;-75
2022/09/30 01:50:18;;;;;;;;;;;;;;;8.56;65.63672;100900;;;;-71
2022/09/30 01:52:03;;;;;;;3.4;1.9;;;;;;;;;;;;;-73
2022/09/30 01:55:16;;;;;;;;;;;;;;;8.47;66.09668;100897.9;;;;-73
2022/09/30 02:00:14;;;;;;;;;;;;;;;8.43;65.9375;100888.8;;;;-72
2022/09/30 02:05:18;;;;;;;;;;;;;;;8.34;65.81348;100886;;;;-74
2022/09/30 02:10:14;;;;;;;;;;;;;;;8.29;65.98145;100883;;;;-72
2022/09/30 02:15:15;;;;;;;;;;;;;;;8.22;66.1377;100873.4;;;;-72
2022/09/30 02:20:14;;;;;;;;;;;;;;;8.21;65.96973;100873.4;;;;-73
2022/09/30 02:22:02;;;;;;;3.7;1.9;;;;;;;;;;;;;-73
2022/09/30 02:25:17;;;;;;;;;;;;;;;8.12;66.02344;100876.9;;;;-72
2022/09/30 02:30:14;;;;;;;;;;;;;;;8.05;66.12402;100889.6;;;;-72
2022/09/30 02:35:14;;;;;;;;;;;;;;;8.05;66.06738;100897.7;;;;-75
2022/09/30 02:40:15;;;;;;;;;;;;;;;8;66.12695;100902.3;;;;-76
2022/09/30 02:45:15;;;;;;;;;;;;;;;7.94;66.12793;100904.7;;;;-76
2022/09/30 02:50:17;;;;;;;;;;;;;;;7.93;65.88281;100899.2;;;;-74
2022/09/30 02:52:05;;;;;;;4.5;2;;;;;;;;;;;;;-76
2022/09/30 02:55:18;;;;;;;;;;;;;;;7.86;65.94043;100903.5;;;;-77
2022/09/30 03:00:13;;;;;;;;;;;;;;;7.81;65.86426;100907.8;;;;-74
2022/09/30 03:05:13;;;;;;;;;;;;;;;7.81;65.89746;100914.5;;;;-74
2022/09/30 03:10:19;;;;;;;;;;;;;;;7.74;65.87695;100917.8;;;;-76
2022/09/30 03:15:21;;;;;;;;;;;;;;;7.7;66.0918;100918.7;;;;-76
2022/09/30 03:20:27;;;;;;;;;;;;;;;7.64;66.09375;100919.7;;;;-75
2022/09/30 03:22:09;;;;;;;4;2;;;;;;;;;;;;;-75
2022/09/30 03:25:31;;;;;;;;;;;;;;;7.55;66.16895;100918.1;;;;-74
2022/09/30 03:30:17;;;;;;;;;;;;;;;7.49;66.21289;100917.1;;;;-76
2022/09/30 03:35:19;;;;;;;;;;;;;;;7.47;66.23438;100923.5;;;;-75
2022/09/30 03:40:17;;;;;;;;;;;;;;;7.44;66.23926;100929.3;;;;-76
2022/09/30 03:45:15;;;;;;;;;;;;;;;7.37;65.99707;100932.4;;;;-75
2022/09/30 03:50:13;;;;;;;;;;;;;;;7.32;66.35352;100936.4;;;;-72
2022/09/30 03:52:01;;;;;;;4.2;2;;;;;;;;;;;;;-75
2022/09/30 03:55:12;;;;;;;;;;;;;;;7.26;66.17969;100939.9;;;;-75
2022/09/30 04:00:14;;;;;;;;;;;;;;;7.2;66.30078;100939.6;;;;-76
2022/09/30 04:05:13;;;;;;;;;;;;;;;7.2;66.41113;100947.4;;;;-75
2022/09/30 04:10:14;;;;;;;;;;;;;;;7.14;66.29297;100950.3;;;;-74
2022/09/30 04:15:12;;;;;;;;;;;;;;;7.07;66.43555;100951.3;;;;-75
2022/09/30 04:20:12;;;;;;;;;;;;;;;7.05;66.37793;100954.4;;;;-76
2022/09/30 04:22:00;;;;;;;4.4;2.3;;;;;;;;;;;;;-76
2022/09/30 04:25:12;;;;;;;;;;;;;;;7.03;66.45117;100959.1;;;;-77
2022/09/30 04:30:13;;;;;;;;;;;;;;;6.96;66.33203;100960;;;;-71
2022/09/30 04:35:13;;;;;;;;;;;;;;;6.89;66.35449;100953.4;;;;-72
2022/09/30 04:40:12;;;;;;;;;;;;;;;6.86;66.52539;100951.1;;;;-75
2022/09/30 04:45:14;;;;;;;;;;;;;;;6.85;66.47949;100955.7;;;;-76
2022/09/30 04:50:12;;;;;;;;;;;;;;;6.85;66.37988;100958.1;;;;-76
2022/09/30 04:52:00;;;;;;;4;2.1;;;;;;;;;;;;;-75
2022/09/30 04:55:13;;;;;;;;;;;;;;;6.92;66.5127;100964;;;;-76
2022/09/30 05:00:13;;;;;;;;;;;;;;;6.92;66.0498;100979.1;;;;-76
2022/09/30 05:05:12;;;;;;;;;;;;;;;6.94;65.89844;100987.4;;;;-76
2022/09/30 05:10:13;;;;;;;;;;;;;;;6.91;65.93848;100997.5;;;;-76
2022/09/30 05:15:12;;;;;;;;;;;;;;;6.84;65.92871;101003.2;;;;-78
2022/09/30 05:20:13;;;;;;;;;;;;;;;6.84;65.97168;101004.8;;;;-75
2022/09/30 05:22:01;;;;;;;3.7;1.8;;;;;;;;;;;;;-75
2022/09/30 05:25:12;;;;;;;;;;;;;;;6.81;66.09961;100992.7;;;;-76
2022/09/30 05:30:12;;;;;;;;;;;;;;;6.78;66.07324;100989.5;;;;-75
2022/09/30 05:35:13;;;;;;;;;;;;;;;6.76;66.17969;100989.7;;;;-76
2022/09/30 05:40:13;;;;;;;;;;;;;;;6.76;66.13672;100993.1;;;;-75
2022/09/30 05:45:14;;;;;;;;;;;;;;;6.82;65.96875;100990.4;;;;-77
2022/09/30 05:50:13;;;;;;;;;;;;;;;6.83;65.84863;100993.9;;;;-76
2022/09/30 05:52:01;;;;;;;3.7;1.9;;;;;;;;;;;;;-76
2022/09/30 05:55:12;;;;;;;;;;;;;;;6.84;65.53223;100991.8;;;;-75
2022/09/30 06:00:13;;;;;;;;;;;;;;;6.83;65.71777;100989.4;;;;-75
2022/09/30 06:05:12;;;;;;;;;;;;;;;6.87;66.09668;100986.8;;;;-77
2022/09/30 06:10:14;;;;;;;;;;;;;;;6.89;65.71484;100981;;;;-76
2022/09/30 06:15:12;;;;;;;;;;;;;;;6.94;66.14063;100991.3;;;;-78
2022/09/30 06:20:12;;;;;;;;;;;;;;;7.02;66.05469;101000.9;;;;-77
2022/09/30 06:22:01;;;;;;;4.1;2.1;;;;;;;;;;;;;-76
2022/09/30 06:25:13;;;;;;;;;;;;;;;7.23;66.1416;101006.4;;;;-75
2022/09/30 06:30:14;;;;;;;;;;;;;;;7.46;65.66895;101014;;;;-76
2022/09/30 06:35:13;;;;;;;;;;;;;;;7.69;66.26758;101013.9;;;;-76
2022/09/30 06:40:12;;;;;;;;;;;;;;;7.9;65.51367;101015.2;;;;-72
2022/09/30 06:45:13;;;;;;;;;;;;;;;8.09;65.13574;101019;;;;-77
2022/09/30 06:50:12;;;;;;;;;;;;;;;8.29;65.04199;101016.8;;;;-76
2022/09/30 06:52:03;;;;;;;4.9;2.3;;;;;;;;;;;;;-76
2022/09/30 06:55:12;;;;;;;;;;;;;;;8.4;65.29199;101019.7;;;;-76
2022/09/30 07:00:13;;;;;;;;;;;;;;;8.48;65.3584;101025.6;;;;-76
2022/09/30 07:05:12;;;;;;;;;;;;;;;8.54;65.7334;101017.6;;;;-74
2022/09/30 07:10:13;;;;;;;;;;;;;;;8.69;65.43457;101014.1;;;;-77
2022/09/30 07:15:13;;;;;;;;;;;;;;;8.92;66.52051;101006;;;;-77
2022/09/30 07:20:13;;;;;;;;;;;;;;;9.2;66.91797;100994.3;;;;-72
2022/09/30 07:22:26;;;;;;;4.8;2.7;;;;;;;;;;;;;-77
2022/09/30 07:25:13;;;;;;;;;;;;;;;9.43;66.03418;101002.1;;;;-75
2022/09/30 07:30:12;;;;;;;;;;;;;;;9.62;65.60742;101000;;;;-73
2022/09/30 07:35:12;;;;;;;;;;;;;;;9.79;65.5;100995;;;;-75
2022/09/30 07:40:15;;;;;;;;;;;;;;;9.98;65.71777;100993.8;;;;-74
2022/09/30 07:45:18;;;;;;;;;;;;;;;10.22;66.08594;100987;;;;-69
2022/09/30 07:50:14;;;;;;;;;;;;;;;10.44;65.83203;100980;;;;-69
2022/09/30 07:52:02;;;;;;;5.2;3;;;;;;;;;;;;;-73
2022/09/30 07:55:12;;;;;;;;;;;;;;;10.7;66.36133;100974;;;;-69
2022/09/30 08:00:12;;;;;;;;;;;;;;;10.84;65.61328;100972.8;;;;-70
2022/09/30 08:05:12;;;;;;;;;;;;;;;10.97;67.46875;100978.6;;;;-69
2022/09/30 08:10:12;;;;;;;;;;;;;;;11.01;67.81836;100983.2;;;;-68
2022/09/30 08:15:12;;;;;;;;;;;;;;;11.1;68.06738;100988.7;;;;-68
2022/09/30 08:20:12;;;;;;;;;;;;;;;11.35;67.68164;100990.4;;;;-68
2022/09/30 08:22:02;;;;;;;3.3;2;;;;;;;;;;;;;-70
2022/09/30 08:25:12;;;;;;;;;;;;;;;12.06;66.35352;100979.6;;;;-69
2022/09/30 08:30:12;;;;;;;;;;;;;;;12.63;67.84668;100980.1;;;;-69
2022/09/30 08:35:12;;;;;;;;;;;;;;;13.12;65.6875;100984.2;;;;-69
2022/09/30 08:40:17;;;;;;;;;;;;;;;12.96;66.03223;100987.5;;;;-69
2022/09/30 08:45:20;;;;;;;;;;;;;;;12.77;65.98242;100992.5;;;;-69
2022/09/30 08:50:19;;;;;;;;;;;;;;;12.67;67.10645;100991;;;;-69
2022/09/30 08:52:04;;;;;;;2.3;1.4;;;;;;;;;;;;;-68
2022/09/30 08:55:19;;;;;;;;;;;;;;;12.57;69.28809;100989.7;;;;-69
2022/09/30 09:00:15;;;;;;;;;;;;;;;12.55;69.875;100989.4;;;;-74
2022/09/30 09:05:19;;;;;;;;;;;;;;;12.7;67.9248;100991.5;;;;-76
2022/09/30 09:10:18;;;;;;;;;;;;;;;12.74;70.24023;100990.2;;;;-74
2022/09/30 09:15:25;;;;;;;;;;;;;;;12.83;70.23438;100980.3;;;;-70
2022/09/30 09:20:16;;;;;;;;;;;;;;;12.9;70.36719;100984.7;;;;-69
2022/09/30 09:22:05;;;;;;;1.7;0.8;;;;;;;;;;;;;-68
2022/09/30 09:25:13;;;;;;;;;;;;;;;12.92;69.56641;100981.3;;;;-69
2022/09/30 09:30:14;;;;;;;;;;;;;;;13.06;70.51563;100983.9;;;;-75
2022/09/30 09:35:16;;;;;;;;;;;;;;;13.23;70.36328;100982.8;;;;-74
2022/09/30 09:40:15;;;;;;;;;;;;;;;13.61;70.39258;100985.4;;;;-75
2022/09/30 09:45:16;;;;;;;;;;;;;;;13.91;69.29883;100981.9;;;;-74
2022/09/30 09:50:16;;;;;;;;;;;;;;;14.22;67.9248;100990.4;;;;-74
2022/09/30 09:52:19;;;;;;;2;0.7;;;;;;;;;;;;;-74
2022/09/30 09:55:12;;;;;;;;;;;;;;;14.36;67.50879;100988.6;;;;-74
2022/09/30 10:05:24;;;;;;;;;;;;;;;14.59;67.18652;100987.4;;;;-74
2022/09/30 10:10:20;;;;;;;;;;;;;;;14.53;66.63867;100984;;;;-75
2022/09/30 10:15:22;;;;;;;;;;;;;;;14.52;66.48047;100980.4;;;;-70
2022/09/30 10:20:21;;;;;;;;;;;;;;;14.56;66.26172;100977.9;;;;-69
2022/09/30 10:22:20;;;;;;;4;1.5;;;;;;;;;;;;;-70
2022/09/30 10:25:28;;;;;;;;;;;;;;;14.94;67.09375;100975.8;;;;-69
2022/09/30 10:30:12;;;;;;;;;;;;;;;15.47;65.15137;100974.5;;;;-74
2022/09/30 10:35:20;;;;;;;;;;;;;;;15.87;64.24219;100970.1;;;;-75
2022/09/30 10:40:21;;;;;;;;;;;;;;;16.17;63.92578;100969;;;;-74
2022/09/30 10:45:23;;;;;;;;;;;;;;;16.55;64.58984;100967.6;;;;-74
2022/09/30 10:50:16;;;;;;;;;;;;;;;16.78;62.19922;100972.2;;;;-74
2022/09/30 10:52:09;;;;;;;5.1;2.5;;;;;;;;;;;;;-73
2022/09/30 10:55:22;;;;;;;;;;;;;;;17.17;61.55273;100963.2;;;;-75
2022/09/30 11:00:17;;;;;;;;;;;;;;;17.43;61.1709;100955.2;;;;-74
2022/09/30 11:05:16;;;;;;;;;;;;;;;17.56;59.89941;100954.8;;;;-75
2022/09/30 11:10:18;;;;;;;;;;;;;;;17.84;60.23145;100955.4;;;;-74
2022/09/30 11:15:16;;;;;;;;;;;;;;;17.76;59.66406;100951.2;;;;-74
2022/09/30 11:20:20;;;;;;;;;;;;;;;17.62;59.01367;100947.4;;;;-76
2022/09/30 11:22:15;;;;;;;3.1;1.3;;;;;;;;;;;;;-75
2022/09/30 11:25:15;;;;;;;;;;;;;;;17.62;60.4043;100944.5;;;;-74
2022/09/30 11:30:16;;;;;;;;;;;;;;;17.8;59.30859;100935.1;;;;-76
2022/09/30 11:35:24;;;;;;;;;;;;;;;17.86;60.57227;100931;;;;-69
2022/09/30 11:40:27;;;;;;;;;;;;;;;17.95;59.57813;100919.8;;;;-68
2022/09/30 11:45:23;;;;;;;;;;;;;;;18.02;58.0459;100909.1;;;;-70
2022/09/30 11:50:20;;;;;;;;;;;;;;;18.07;59.25391;100907.4;;;;-70
2022/09/30 11:52:19;;;;;;;1.6;0.6;;;;;;;;;;;;;-70
2022/09/30 11:55:24;;;;;;;;;;;;;;;17.8;59.21777;100907.9;;;;-69
2022/09/30 12:00:17;;;;;;;;;;;;;;;17.59;58.37598;100903.4;;;;-75
2022/09/30 12:05:13;;;;;;;;;;;;;;;17.54;58.44727;100900.2;;;;-74
2022/09/30 12:10:20;;;;;;;;;;;;;;;17.57;58.29199;100897.7;;;;-74
2022/09/30 12:15:17;;;;;;;;;;;;;;;17.49;58.13574;100896.4;;;;-77
2022/09/30 12:20:18;;;;;;;;;;;;;;;17.38;58.46094;100888.6;;;;-74
2022/09/30 12:22:20;;;;;;;1.3;0.6;;;;;;;;;;;;;-75
2022/09/30 12:25:20;;;;;;;;;;;;;;;17.47;58.90234;100897.1;;;;-74
2022/09/30 12:30:21;;;;;;;;;;;;;;;17.64;57.46387;100892.6;;;;-73
2022/09/30 12:35:23;;;;;;;;;;;;;;;17.91;57.0918;100874.5;;;;-74
2022/09/30 12:40:25;;;;;;;;;;;;;;;17.81;56.18359;100880.3;;;;-78
2022/09/30 12:45:23;;;;;;;;;;;;;;;17.86;57.1543;100880.6;;;;-72
2022/09/30 12:50:15;;;;;;;;;;;;;;;17.8;56.19434;100869.8;;;;-72
2022/09/30 12:52:20;;;;;;;2.7;0.8;;;;;;;;;;;;;-74
2022/09/30 12:55:20;;;;;;;;;;;;;;;17.78;57.7998;100868.8;;;;-78
2022/09/30 13:00:17;;;;;;;;;;;;;;;17.73;57.79395;100852.6;;;;-77
2022/09/30 13:05:32;;;;;;;;;;;;;;;17.77;57.01758;100845.7;;;;-79
2022/09/30 13:10:23;;;;;;;;;;;;;;;17.81;57.39551;100840.4;;;;-78
2022/09/30 13:15:24;;;;;;;;;;;;;;;17.84;56.7666;100839.2;;;;-78
2022/09/30 13:20:26;;;;;;;;;;;;;;;17.95;57.39258;100826.1;;;;-79
2022/09/30 13:22:32;;;;;;;3.7;1.7;;;;;;;;;;;;;-78
2022/09/30 13:25:19;;;;;;;;;;;;;;;18.02;58.68164;100827.1;;;;-78
2022/09/30 13:30:28;;;;;;;;;;;;;;;17.86;56.13379;100824.5;;;;-73
2022/09/30 13:35:23;;;;;;;;;;;;;;;17.8;56.18262;100825.4;;;;-78
2022/09/30 13:40:17;;;;;;;;;;;;;;;17.79;56.94043;100822.8;;;;-78
2022/09/30 13:45:17;;;;;;;;;;;;;;;17.7;56.47656;100814.7;;;;-77
2022/09/30 13:50:20;;;;;;;;;;;;;;;17.63;57.47559;100817.7;;;;-77
2022/09/30 13:52:24;;;;;;;3;1.3;;;;;;;;;;;;;-79
2022/09/30 13:55:18;;;;;;;;;;;;;;;17.61;57.96973;100817.8;;;;-79
2022/09/30 14:00:15;;;;;;;;;;;;;;;17.56;57.23926;100819.2;;;;-77
2022/09/30 14:05:25;;;;;;;;;;;;;;;17.49;57.90918;100815.2;;;;-78
2022/09/30 14:10:23;;;;;;;;;;;;;;;17.43;57.8457;100816.7;;;;-78
2022/09/30 14:15:21;;;;;;;;;;;;;;;17.47;58.37207;100810;;;;-79
2022/09/30 14:20:20;;;;;;;;;;;;;;;17.47;57.73828;100802;;;;-74
2022/09/30 14:22:25;;;;;;;4.1;1.8;;;;;;;;;;;;;-73
2022/09/30 14:25:17;;;;;;;;;;;;;;;17.45;57.79102;100790.8;;;;-74
2022/09/30 14:30:14;;;;;;;;;;;;;;;17.27;57.31543;100785.1;;;;-77
2022/09/30 14:35:15;;;;;;;;;;;;;;;17.31;57.9873;100784.3;;;;-75
2022/09/30 14:40:18;;;;;;;;;;;;;;;17.35;57.98242;100777.3;;;;-78
2022/09/30 14:45:14;;;;;;;;;;;;;;;17.34;56.67871;100780.7;;;;-76
2022/09/30 14:50:19;;;;;;;;;;;;;;;17.31;56.3916;100781;;;;-76
2022/09/30 14:52:39;;;;;;;3.4;1.6;;;;;;;;;;;;;-77
2022/09/30 14:55:24;;;;;;;;;;;;;;;17.3;55.0332;100770.5;;;;-77
2022/09/30 15:00:31;;;;;;;;;;;;;;;17.19;54.70215;100771.7;;;;-76
2022/09/30 15:05:16;;;;;;;;;;;;;;;17.24;54.39063;100780;;;;-73
2022/09/30 15:10:20;;;;;;;;;;;;;;;17.14;54.05078;100774.9;;;;-73
2022/09/30 15:15:26;;;;;;;;;;;;;;;17.08;52.5957;100770.3;;;;-75
2022/09/30 15:20:27;;;;;;;;;;;;;;;17.03;52.44043;100780.6;;;;-77
2022/09/30 15:22:29;;;;;;;3.1;1.3;;;;;;;;;;;;;-78
2022/09/30 15:25:15;;;;;;;;;;;;;;;16.88;51.6875;100777;;;;-77
2022/09/30 15:30:25;;;;;;;;;;;;;;;16.75;52.08984;100781.3;;;;-79
2022/09/30 15:35:15;;;;;;;;;;;;;;;16.67;52.81543;100782.7;;;;-80
2022/09/30 15:45:22;;;;;;;;;;;;;;;16.5;54.20996;100783.2;;;;-75
2022/09/30 15:50:26;;;;;;;;;;;;;;;16.34;54.22461;100777.2;;;;-76
2022/09/30 15:52:43;;;;;;;3.7;1.9;;;;;;;;;;;;;-75
2022/09/30 15:55:24;;;;;;;;;;;;;;;16.28;54.52148;100767;;;;-77
2022/09/30 16:00:22;;;;;;;;;;;;;;;16.14;54.33594;100763.9;;;;-77
2022/09/30 16:05:12;;;;;;;;;;;;;;;15.99;55.0166;100764.2;;;;-76
2022/09/30 16:10:21;;;;;;;;;;;;;;;15.93;55.11035;100763.7;;;;-76
2022/09/30 16:15:14;;;;;;;;;;;;;;;15.84;55.4043;100753.4;;;;-76
2022/09/30 16:20:23;;;;;;;;;;;;;;;15.75;56.03613;100745;;;;-77
2022/09/30 16:22:51;;;;;;;5;2.5;;;;;;;;;;;;;-76
2022/09/30 16:25:19;;;;;;;;;;;;;;;15.67;56.5332;100736.5;;;;-76
2022/09/30 16:30:16;;;;;;;;;;;;;;;15.57;56.27246;100732.3;;;;-76
2022/09/30 16:35:16;;;;;;;;;;;;;;;15.44;56.30078;100725.8;;;;-76
2022/09/30 16:40:19;;;;;;;;;;;;;;;15.37;56.85449;100722.4;;;;-77
2022/09/30 16:45:14;;;;;;;;;;;;;;;15.28;56.76465;100720.5;;;;-76
2022/09/30 16:50:18;;;;;;;;;;;;;;;15.16;56.9082;100720.7;;;;-77
2022/09/30 16:52:33;;;;;;;6.4;3.7;;;;;;;;;;;;;-76
2022/09/30 16:55:12;;;;;;;;;;;;;;;15.05;57.28809;100717.6;;;;-75
2022/09/30 17:00:16;;;;;;;;;;;;;;;15.01;57.0459;100717.3;;;;-75
2022/09/30 17:05:15;;;;;;;;;;;;;;;14.91;58;100714.2;;;;-77
2022/09/30 17:10:18;;;;;;;;;;;;;;;14.84;58.13672;100708.6;;;;-77
2022/09/30 17:15:12;;;;;;;;;;;;;;;14.7;58.77051;100700.9;;;;-76
2022/09/30 17:20:12;;;;;;;;;;;;;;;14.64;59.05469;100694.8;;;;-76
2022/09/30 17:22:35;;;;;;;8;4;;;;;;;;;;;;;-78
2022/09/30 17:25:13;;;;;;;;;;;;;;;14.56;59.12207;100689.1;;;;-78
2022/09/30 17:30:12;;;;;;;;;;;;;;;14.43;59.57715;100684.9;;;;-76
2022/09/30 17:35:14;;;;;;;;;;;;;;;14.37;59.75977;100673;;;;-80
2022/09/30 17:45:12;;;;;;;;;;;;;;;14.24;60.89941;100671.8;;;;-80
2022/09/30 17:50:13;;;;;;;;;;;;;;;14.19;60.66699;100675.1;;;;-76
2022/09/30 17:52:36;;;;;;;8.3;4.3;;;;;;;;;;;;;-76
2022/09/30 17:55:12;;;;;;;;;;;;;;;14.13;61.6123;100677.2;;;;-76
2022/09/30 18:00:13;;;;;;;;;;;;;;;14.1;61.86523;100671;;;;-75
2022/09/30 18:05:13;;;;;;;;;;;;;;;14.06;61.80566;100659.9;;;;-77
2022/09/30 18:10:12;;;;;;;;;;;;;;;14.05;62.08301;100647.9;;;;-76
2022/09/30 18:15:12;;;;;;;;;;;;;;;14.03;61.83398;100646.3;;;;-72
2022/09/30 18:20:13;;;;;;;;;;;;;;;13.99;62.28809;100639.7;;;;-76
2022/09/30 18:22:37;;;;;;;7;4.1;;;;;;;;;;;;;-75
2022/09/30 18:25:24;;;;;;;;;;;;;;;13.95;62.04688;100627.4;;;;-76
2022/09/30 18:30:13;;;;;;;;;;;;;;;13.9;62.22949;100614.2;;;;-78
2022/09/30 18:35:13;;;;;;;;;;;;;;;13.85;62.7832;100605.4;;;;-76
2022/09/30 18:40:14;;;;;;;;;;;;;;;13.8;62.75488;100588;;;;-77
2022/09/30 18:45:13;;;;;;;;;;;;;;;13.76;62.91602;100581.2;;;;-75
2022/09/30 18:50:12;;;;;;;;;;;;;;;13.73;62.57617;100574.6;;;;-77
2022/09/30 18:52:39;;;;;;;7.1;4;;;;;;;;;;;;;-76
2022/09/30 18:55:12;;;;;;;;;;;;;;;13.71;62.83105;100579.3;;;;-77
2022/09/30 19:00:13;;;;;;;;;;;;;;;13.68;62.55859;100563.9;;;;-76
2022/09/30 19:05:13;;;;;;;;;;;;;;;13.64;62.54199;100553.6;;;;-75
2022/09/30 19:10:12;;;;;;;;;;;;;;;13.63;62.62891;100538;;;;-77
2022/09/30 19:15:14;;;;;;;;;;;;;;;13.59;62.81445;100540.5;;;;-77
2022/09/30 19:20:13;;;;;;;;;;;;;;;13.58;62.54297;100541.9;;;;-75
2022/09/30 19:22:39;;;;;;;6.8;3.6;;;;;;;;;;;;;-76
2022/09/30 19:25:14;;;;;;;;;;;;;;;13.57;62.90137;100541.5;;;;-76
2022/09/30 19:30:13;;;;;;;;;;;;;;;13.56;62.97656;100534.3;;;;-76
2022/09/30 19:35:13;;;;;;;;;;;;;;;13.53;63.09668;100515.7;;;;-77
2022/09/30 19:40:16;;;;;;;;;;;;;;;13.5;63.14844;100505.1;;;;-76
2022/09/30 19:45:12;;;;;;;;;;;;;;;13.47;63.22266;100501.3;;;;-76
2022/09/30 19:50:12;;;;;;;;;;;;;;;13.46;63.20898;100484.7;;;;-76
2022/09/30 19:52:41;;;;;;;7;3.5;;;;;;;;;;;;;-75
2022/09/30 19:55:12;;;;;;;;;;;;;;;13.45;63.11816;100479.9;;;;-76
2022/09/30 20:00:12;;;;;;;;;;;;;;;13.43;63.18359;100460.5;;;;-78
2022/09/30 20:05:13;;;;;;;;;;;;;;;13.42;63.25977;100456.6;;;;-75
2022/09/30 20:10:12;;;;;;;;;;;;;;;13.4;63.3457;100451.7;;;;-76
2022/09/30 20:22:41;;;;;;;6;3.3;;;;;;;;;;;;;-76
2022/09/30 20:25:12;;;;;;;;;;;;;;;13.34;63.65234;100424.8;;;;-73
2022/09/30 20:30:12;;;;;;;;;;;;;;;13.32;63.56934;100422.1;;;;-72
2022/09/30 20:35:12;;;;;;;;;;;;;;;13.29;63.62207;100420;;;;-72
2022/09/30 20:40:12;;;;;;;;;;;;;;;13.27;63.68652;100417.9;;;;-76
2022/09/30 20:45:13;;;;;;;;;;;;;;;13.24;63.95117;100420.3;;;;-77
2022/09/30 20:50:13;;;;;;;;;;;;;;;13.21;64.47168;100421.4;;;;-76
2022/09/30 20:52:42;;;;;;;6;3.5;;;;;;;;;;;;;-78
2022/09/30 20:55:12;;;;;;;;;;;;;;;13.15;64.69727;100410.5;;;;-77
2022/09/30 21:00:15;;;;;;;;;;;;;;;13.07;66.08203;100410.9;;;;-75
2022/09/30 21:05:12;;;;;;;;;;;;;;;12.98;66.67188;100394.5;;;;-75
2022/09/30 21:10:12;;;;;;;;;;;;;;;12.9;67.24121;100385.9;;;;-75
2022/09/30 21:15:14;;;;;;;;;;;;;;;12.79;68.02832;100371.3;;;;-75
2022/09/30 21:20:12;;;;;;;;;;;;;;;12.73;67.9082;100366.5;;;;-74
2022/09/30 21:22:44;;;;;;;6.3;3.1;;;;;;;;;;;;;-73
2022/09/30 21:25:12;;;;;;;;;;;;;;;12.69;68.14844;100368.3;;;;-74
2022/09/30 21:30:13;;;;;;;;;;;;;;;12.63;67.79102;100360.1;;;;-75
2022/09/30 21:35:12;;;;;;;;;;;;;;;12.57;68.22852;100363.8;;;;-75
2022/09/30 21:40:12;;;;;;;;;;;;;;;12.51;68.04004;100373.3;;;;-74
2022/09/30 21:45:12;;;;;;;;;;;;;;;12.47;68.69336;100367.3;;;;-75
2022/09/30 21:50:12;;;;;;;;;;;;;;;12.41;69.41699;100375;;;;-75
2022/09/30 21:52:46;;;;;;;6.5;3.1;;;;;;;;;;;;;-75
2022/09/30 21:55:12;;;;;;;;;;;;;;;12.35;69.19727;100370;;;;-75
2022/09/30 22:00:12;;;;;;;;;;;;;;;12.31;69.80273;100362.4;;;;-75
2022/09/30 22:05:12;;;;;;;;;;;;;;;12.22;70.53711;100365.4;;;;-76
2022/09/30 22:10:12;;;;;;;;;;;;;;;12.2;70.44434;100358.9;;;;-76
2022/09/30 22:15:12;;;;;;;;;;;;;;;12.14;71.21289;100358.7;;;;-75
2022/09/30 22:20:12;;;;;;;;;;;;;;;12.08;73.05078;100351.9;;;;-76
2022/09/30 22:22:47;;;;;;;6.4;3.1;;;;;;;;;;;;;-75
2022/09/30 22:25:13;;;;;;;;;;;;;;;12.03;71.77441;100340.6;;;;-76
2022/09/30 22:30:12;;;;;;;;;;;;;;;11.99;74.14941;100332.6;;;;-76
2022/09/30 22:40:14;;;;;;;;;;;;;;;11.9;73.84473;100311.7;;;;-78
2022/09/30 22:45:12;;;;;;;;;;;;;;;11.86;73.34961;100288.9;;;;-77
2022/09/30 22:50:12;;;;;;;;;;;;;;;11.8;74.55078;100292.5;;;;-78
2022/09/30 22:52:48;;;;;;;5.4;3;;;;;;;;;;;;;-78
2022/09/30 22:55:13;;;;;;;;;;;;;;;11.76;75.82031;100285.9;;;;-79
2022/09/30 23:00:12;;;;;;;;;;;;;;;11.72;74.60449;100278.9;;;;-80
2022/09/30 23:05:12;;;;;;;;;;;;;;;11.67;76.93945;100252.8;;;;-78
2022/09/30 23:10:12;;;;;;;;;;;;;;;11.63;75.9541;100242.3;;;;-78
2022/09/30 23:15:12;;;;;;;;;;;;;;;11.6;76.1377;100227.7;;;;-78
2022/09/30 23:20:12;;;;;;;;;;;;;;;11.58;76.55664;100223.6;;;;-79
2022/09/30 23:22:49;;;;;;;5.6;2.7;;;;;;;;;;;;;-79
2022/09/30 23:25:12;;;;;;;;;;;;;;;11.56;75.85254;100214.6;;;;-78
2022/09/30 23:30:13;;;;;;;;;;;;;;;11.53;76.71387;100195.9;;;;-77
2022/09/30 23:35:12;;;;;;;;;;;;;;;11.49;78.57227;100164.8;;;;-78
2022/09/30 23:40:12;;;;;;;;;;;;;;;11.46;78.13281;100131.8;;;;-79
2022/09/30 23:45:13;;;;;;;;;;;;;;;11.4;77.93457;100118.7;;;;-79
2022/09/30 23:50:12;;;;;;;;;;;;;;;11.42;78.42578;100132;;;;-78
2022/09/30 23:52:51;;;;;;;5.6;3.4;;;;;;;;;;;;;-79
2022/09/30 23:55:12;;;;;;;;;;;;;;;11.39;78.1543;100122.3;;;;-78
